createdAt,value
2018-12-08T00:01:32.824Z,99296.19
2018-12-08T00:04:00.434Z,99300.17
2018-12-08T00:06:28.196Z,99309.64
2018-12-08T00:08:56.088Z,99312.24
2018-12-08T00:11:23.878Z,99318.84
2018-12-08T00:13:51.845Z,99326.63
2018-12-08T00:16:19.665Z,99310.56
2018-12-08T00:18:47.484Z,99322.08
2018-12-08T00:21:15.256Z,99334.78
2018-12-08T00:23:42.900Z,99333.22
2018-12-08T00:26:11.370Z,99341.84
2018-12-08T00:28:38.997Z,99366.89
2018-12-08T00:31:18.415Z,99356.77
2018-12-08T00:33:46.038Z,99380.16
2018-12-08T00:36:13.655Z,99391.06
2018-12-08T00:38:41.265Z,99400.15
2018-12-08T00:41:08.887Z,99410.13
2018-12-08T00:43:37.314Z,99415.95
2018-12-08T00:46:04.944Z,99429.20
2018-12-08T00:48:32.561Z,99437.19
2018-12-08T00:51:00.184Z,99454.45
2018-12-08T00:53:27.802Z,99482.41
2018-12-08T00:55:55.431Z,99491.44
2018-12-08T00:58:23.058Z,99533.75
2018-12-08T01:00:50.711Z,99490.52
2018-12-08T01:03:18.333Z,99515.95
2018-12-08T01:05:46.874Z,99518.92
2018-12-08T01:08:14.494Z,99517.64
2018-12-08T01:10:42.245Z,99539.16
2018-12-08T01:13:09.885Z,99537.48
2018-12-08T01:15:37.504Z,99550.27
2018-12-08T01:18:05.127Z,99545.17
2018-12-08T01:20:33.259Z,99545.92
2018-12-08T01:23:00.894Z,99551.80
2018-12-08T01:25:28.805Z,99561.27
2018-12-08T01:27:57.404Z,99557.61
2018-12-08T01:30:25.030Z,99568.81
2018-12-08T01:32:54.496Z,99563.08
2018-12-08T01:35:22.386Z,99566.23
2018-12-08T01:37:50.060Z,99573.59
2018-12-08T01:40:17.854Z,99580.62
2018-12-08T01:42:47.611Z,99586.88
2018-12-08T01:45:15.221Z,99590.90
2018-12-08T01:47:42.893Z,99577.72
2018-12-08T01:50:10.782Z,99583.91
2018-12-08T01:52:39.340Z,99587.25
2018-12-08T01:55:07.043Z,99597.32
2018-12-08T01:57:34.769Z,99607.50
2018-12-08T02:00:03.494Z,99612.63
2018-12-08T02:02:32.615Z,99621.98
2018-12-08T02:05:00.228Z,99616.74
2018-12-08T02:07:27.854Z,99616.48
2018-12-08T02:09:55.514Z,99611.74
2018-12-08T02:12:23.256Z,99620.19
2018-12-08T02:14:51.045Z,99626.93
2018-12-08T02:17:18.836Z,99624.39
2018-12-08T02:19:48.386Z,99622.97
2018-12-08T02:22:16.960Z,99617.54
2018-12-08T02:24:44.582Z,99624.34
2018-12-08T02:27:12.209Z,99629.98
2018-12-08T02:29:39.828Z,99626.64
2018-12-08T02:32:08.368Z,99633.03
2018-12-08T02:34:36.995Z,99628.47
2018-12-08T02:37:04.631Z,99632.06
2018-12-08T02:39:32.703Z,99629.22
2018-12-08T02:42:00.426Z,99630.16
2018-12-08T02:44:28.105Z,99623.52
2018-12-08T02:46:55.732Z,99626.48
2018-12-08T02:49:24.236Z,99634.55
2018-12-08T02:51:54.757Z,99640.81
2018-12-08T02:54:22.467Z,99638.77
2018-12-08T02:56:50.985Z,99645.60
2018-12-08T02:59:19.503Z,99648.56
2018-12-08T03:01:47.392Z,99657.13
2018-12-08T03:04:16.002Z,99659.34
2018-12-08T03:06:44.610Z,99664.14
2018-12-08T03:09:13.013Z,99669.27
2018-12-08T03:11:40.812Z,99681.97
2018-12-08T03:14:09.533Z,99692.55
2018-12-08T03:16:38.155Z,99696.27
2018-12-08T03:19:05.766Z,99697.72
2018-12-08T03:21:35.015Z,99699.45
2018-12-08T03:24:03.558Z,99704.20
2018-12-08T03:26:32.995Z,99712.22
2018-12-08T03:29:02.602Z,99715.81
2018-12-08T03:31:30.223Z,99719.69
2018-12-08T03:33:57.901Z,99738.98
2018-12-08T03:36:25.620Z,99717.89
2018-12-08T03:38:54.168Z,99729.13
2018-12-08T03:41:22.785Z,99721.06
2018-12-08T03:43:51.316Z,99723.48
2018-12-08T03:46:19.916Z,99732.46
2018-12-08T03:48:48.507Z,99722.05
2018-12-08T03:51:17.067Z,99724.47
2018-12-08T03:53:44.834Z,99724.74
2018-12-08T03:56:13.381Z,99731.98
2018-12-08T03:58:41.163Z,99756.11
2018-12-08T04:01:09.699Z,99755.20
2018-12-08T04:03:37.310Z,99755.85
2018-12-08T04:06:04.954Z,99780.74
2018-12-08T04:08:34.615Z,99774.69
2018-12-08T04:11:02.808Z,99771.19
2018-12-08T04:13:30.422Z,99774.30
2018-12-08T04:15:58.185Z,99783.55
2018-12-08T04:18:26.902Z,99781.08
2018-12-08T04:20:54.504Z,99787.02
2018-12-08T04:23:23.057Z,99779.07
2018-12-08T04:25:50.761Z,99780.94
2018-12-08T04:28:18.485Z,99789.88
2018-12-08T04:30:47.250Z,99790.33
2018-12-08T04:33:15.662Z,99806.57
2018-12-08T04:35:44.394Z,99800.37
2018-12-08T04:38:12.973Z,99807.22
2018-12-08T04:40:41.718Z,99815.89
2018-12-08T04:43:10.253Z,99816.20
2018-12-08T04:45:38.934Z,99824.42
2018-12-08T04:48:07.663Z,99832.11
2018-12-08T04:50:36.234Z,99835.95
2018-12-08T04:53:04.658Z,99845.58
2018-12-08T04:55:33.781Z,99862.33
2018-12-08T04:58:01.420Z,99875.07
2018-12-08T05:00:29.995Z,99888.09
2018-12-08T05:02:57.620Z,99899.72
2018-12-08T05:05:25.237Z,99901.79
2018-12-08T05:07:53.633Z,99899.38
2018-12-08T05:10:21.276Z,99903.07
2018-12-08T05:12:48.896Z,99903.13
2018-12-08T05:15:17.355Z,99897.96
2018-12-08T05:17:44.975Z,99894.72
2018-12-08T05:20:12.667Z,99907.83
2018-12-08T05:22:40.306Z,99907.44
2018-12-08T05:25:08.836Z,99909.99
2018-12-08T05:27:36.444Z,99903.14
2018-12-08T05:30:05.393Z,99908.14
2018-12-08T05:32:33.696Z,99901.72
2018-12-08T05:35:01.637Z,99901.36
2018-12-08T05:37:30.074Z,99910.83
2018-12-08T05:39:58.564Z,99913.73
2018-12-08T05:42:26.196Z,99909.64
2018-12-08T05:44:53.927Z,99919.88
2018-12-08T05:47:21.589Z,99915.59
2018-12-08T05:49:49.546Z,99912.13
2018-12-08T05:52:18.083Z,99918.91
2018-12-08T05:54:45.687Z,99916.42
2018-12-08T05:57:13.347Z,99916.14
2018-12-08T05:59:40.954Z,99914.53
2018-12-08T06:02:09.574Z,99919.11
2018-12-08T06:04:37.189Z,99921.31
2018-12-08T06:07:05.747Z,99914.32
2018-12-08T06:09:34.298Z,99922.95
2018-12-08T06:12:04.518Z,99921.10
2018-12-08T06:14:33.880Z,99913.03
2018-12-08T06:17:02.878Z,99917.40
2018-12-08T06:19:30.503Z,99914.59
2018-12-08T06:21:58.942Z,99910.51
2018-12-08T06:24:27.350Z,99910.05
2018-12-08T06:26:55.051Z,99916.34
2018-12-08T06:29:24.405Z,99909.87
2018-12-08T06:31:52.833Z,99903.91
2018-12-08T06:34:21.291Z,99911.34
2018-12-08T06:36:49.937Z,99911.80
2018-12-08T06:39:17.600Z,99906.58
2018-12-08T06:41:45.256Z,99906.20
2018-12-08T06:44:13.834Z,99901.17
2018-12-08T06:46:41.457Z,99905.61
2018-12-08T06:49:09.889Z,99907.57
2018-12-08T06:51:37.500Z,99900.95
2018-12-08T06:54:06.073Z,99898.22
2018-12-08T06:56:33.848Z,99900.22
2018-12-08T06:59:02.453Z,99900.34
2018-12-08T07:01:32.306Z,99902.11
2018-12-08T07:03:59.915Z,99904.24
2018-12-08T07:06:28.383Z,99910.42
2018-12-08T07:08:56.010Z,99919.00
2018-12-08T07:11:24.585Z,99915.97
2018-12-08T07:13:52.199Z,99914.47
2018-12-08T07:16:19.818Z,99915.16
2018-12-08T07:18:47.438Z,99916.99
2018-12-08T07:21:15.087Z,99914.86
2018-12-08T07:23:42.709Z,99909.91
2018-12-08T07:26:10.319Z,99912.92
2018-12-08T07:28:38.887Z,99910.88
2018-12-08T07:31:07.431Z,99912.70
2018-12-08T07:33:35.081Z,99911.16
2018-12-08T07:36:03.084Z,99920.58
2018-12-08T07:38:30.691Z,99920.52
2018-12-08T07:40:59.393Z,99900.69
2018-12-08T07:43:27.067Z,99904.11
2018-12-08T07:45:54.835Z,99907.38
2018-12-08T07:48:22.488Z,99903.25
2018-12-08T07:50:50.107Z,99908.25
2018-12-08T07:53:17.764Z,99903.83
2018-12-08T07:55:46.197Z,99906.47
2018-12-08T07:58:14.610Z,99903.23
2018-12-08T08:00:43.172Z,99901.97
2018-12-08T08:03:11.703Z,99905.47
2018-12-08T08:05:40.275Z,99900.30
2018-12-08T08:08:07.862Z,99894.76
2018-12-08T08:10:35.565Z,99903.88
2018-12-08T08:13:04.222Z,99890.35
2018-12-08T08:15:32.727Z,99881.84
2018-12-08T08:18:01.360Z,99871.70
2018-12-08T08:20:28.984Z,99872.65
2018-12-08T08:22:56.638Z,99875.86
2018-12-08T08:25:24.291Z,99875.79
2018-12-08T08:27:52.735Z,99874.80
2018-12-08T08:30:20.384Z,99881.97
2018-12-08T08:32:48.017Z,99871.45
2018-12-08T08:35:15.708Z,99871.98
2018-12-08T08:37:43.319Z,99869.44
2018-12-08T08:40:11.104Z,99862.36
2018-12-08T08:42:38.719Z,99863.34
2018-12-08T08:45:07.538Z,99858.73
2018-12-08T08:47:35.137Z,99867.08
2018-12-08T08:50:05.098Z,99860.84
2018-12-08T08:52:33.773Z,99865.90
2018-12-08T08:55:01.396Z,99866.09
2018-12-08T08:57:29.014Z,99857.95
2018-12-08T08:59:56.629Z,99858.86
2018-12-08T09:02:24.248Z,99862.86
2018-12-08T09:04:51.875Z,99863.27
2018-12-08T09:07:20.991Z,99853.63
2018-12-08T09:09:50.234Z,99859.91
2018-12-08T09:12:17.967Z,99846.28
2018-12-08T09:14:45.587Z,99850.55
2018-12-08T09:17:27.604Z,99841.56
2018-12-08T09:19:55.892Z,99836.50
2018-12-08T09:22:23.518Z,99844.75
2018-12-08T09:24:51.135Z,99858.87
2018-12-08T09:27:18.771Z,99844.47
2018-12-08T09:29:46.710Z,99834.27
2018-12-08T09:32:14.589Z,99832.77
2018-12-08T09:34:42.484Z,99830.23
2018-12-08T09:37:10.173Z,99832.02
2018-12-08T09:39:37.791Z,99827.72
2018-12-08T09:42:05.535Z,99828.17
2018-12-08T09:44:34.304Z,99814.80
2018-12-08T09:47:02.784Z,99810.50
2018-12-08T09:49:30.406Z,99807.66
2018-12-08T09:51:58.014Z,99815.50
2018-12-08T09:54:25.642Z,99802.80
2018-12-08T09:56:53.251Z,99802.59
2018-12-08T09:59:20.919Z,99809.07
2018-12-08T10:01:49.346Z,99791.10
2018-12-08T10:04:16.965Z,99788.89
2018-12-08T10:06:44.594Z,99778.94
2018-12-08T10:09:12.209Z,99777.67
2018-12-08T10:11:40.644Z,99766.52
2018-12-08T10:14:08.285Z,99762.19
2018-12-08T10:16:35.906Z,99755.75
2018-12-08T10:19:04.518Z,99762.52
2018-12-08T10:21:33.754Z,99757.76
2018-12-08T10:24:01.764Z,99742.12
2018-12-08T10:26:29.383Z,99743.33
2018-12-08T10:28:57.050Z,99750.63
2018-12-08T10:31:24.731Z,99748.03
2018-12-08T10:33:52.366Z,99737.58
2018-12-08T10:36:20.054Z,99726.91
2018-12-08T10:38:47.734Z,99722.67
2018-12-08T10:41:15.431Z,99723.45
2018-12-08T10:43:43.012Z,99734.73
2018-12-08T10:46:10.763Z,99718.94
2018-12-08T10:48:38.380Z,99713.54
2018-12-08T10:51:06.078Z,99715.69
2018-12-08T10:53:34.639Z,99710.96
2018-12-08T10:56:02.736Z,99707.21
2018-12-08T10:58:30.464Z,99700.48
2018-12-08T11:01:03.867Z,99692.80
2018-12-08T11:03:47.799Z,99686.03
2018-12-08T11:06:17.025Z,99701.83
2018-12-08T11:08:44.884Z,99683.95
2018-12-08T11:11:12.578Z,99690.44
2018-12-08T11:13:40.267Z,99688.59
2018-12-08T11:16:07.864Z,99683.03
2018-12-08T11:18:35.490Z,99680.61
2018-12-08T11:21:05.068Z,99686.87
2018-12-08T11:23:33.474Z,99688.06
2018-12-08T11:26:02.776Z,99680.23
2018-12-08T11:28:30.381Z,99666.41
2018-12-08T11:30:58.002Z,99661.05
2018-12-08T11:33:25.624Z,99671.76
2018-12-08T11:35:53.262Z,99655.59
2018-12-08T11:38:20.870Z,99658.63
2018-12-08T11:40:48.664Z,99649.88
2018-12-08T11:43:16.350Z,99644.80
2018-12-08T11:45:43.967Z,99642.92
2018-12-08T11:48:11.592Z,99643.39
2018-12-08T11:50:39.206Z,99640.91
2018-12-08T11:53:06.839Z,99638.06
2018-12-08T11:55:34.456Z,99633.80
2018-12-08T11:58:02.469Z,99636.42
2018-12-08T12:00:30.118Z,99628.70
2018-12-08T12:02:57.727Z,99633.02
2018-12-08T12:05:25.501Z,99632.86
2018-12-08T12:07:53.119Z,99629.58
2018-12-08T12:10:20.911Z,99628.00
2018-12-08T12:12:49.422Z,99627.81
2018-12-08T12:15:17.043Z,99624.59
2018-12-08T12:17:44.741Z,99630.09
2018-12-08T12:20:12.358Z,99619.14
2018-12-08T12:22:39.973Z,99625.72
2018-12-08T12:25:08.045Z,99625.14
2018-12-08T12:27:35.675Z,99614.35
2018-12-08T12:32:57.315Z,99618.90
2018-12-08T12:35:24.940Z,99605.20
2018-12-08T12:37:52.579Z,99593.39
2018-12-08T12:40:20.199Z,99594.23
2018-12-08T12:42:47.825Z,99595.09
2018-12-08T12:45:15.433Z,99591.63
2018-12-08T12:47:43.058Z,99597.10
2018-12-08T12:50:10.668Z,99577.91
2018-12-08T12:52:38.281Z,99584.55
2018-12-08T12:55:05.927Z,99580.29
2018-12-08T12:57:34.166Z,99589.69
2018-12-08T13:00:02.512Z,99584.33
2018-12-08T13:02:30.175Z,99578.86
2018-12-08T13:04:58.713Z,99579.11
2018-12-08T13:07:26.321Z,99568.95
2018-12-08T13:09:53.935Z,99571.86
2018-12-08T13:12:21.968Z,99579.63
2018-12-08T13:14:49.576Z,99569.12
2018-12-08T13:17:17.208Z,99568.38
2018-12-08T13:19:44.848Z,99571.81
2018-12-08T13:22:13.400Z,99569.83
2018-12-08T13:24:42.085Z,99572.08
2018-12-08T13:27:09.822Z,99558.14
2018-12-08T13:29:37.436Z,99571.85
2018-12-08T13:32:05.190Z,99569.59
2018-12-08T13:34:33.750Z,99560.73
2018-12-08T13:37:03.362Z,99553.89
2018-12-08T13:39:31.024Z,99560.50
2018-12-08T13:41:59.772Z,99549.75
2018-12-08T13:44:35.572Z,99554.30
2018-12-08T13:47:03.477Z,99550.72
2018-12-08T13:49:32.166Z,99544.37
2018-12-08T13:52:00.606Z,99551.27
2018-12-08T13:54:41.491Z,99542.03
2018-12-08T13:57:09.411Z,99535.54
2018-12-08T13:59:37.036Z,99537.15
2018-12-08T14:02:04.673Z,99535.30
2018-12-08T14:04:32.845Z,99533.53
2018-12-08T14:07:00.457Z,99532.48
2018-12-08T14:09:28.957Z,99536.77
2018-12-08T14:11:56.721Z,99543.41
2018-12-08T14:14:24.337Z,99546.39
2018-12-08T14:16:51.952Z,99548.17
2018-12-08T14:19:19.702Z,99544.98
2018-12-08T14:21:47.430Z,99543.73
2018-12-08T14:24:15.153Z,99544.72
2018-12-08T14:26:42.762Z,99540.13
2018-12-08T14:29:10.371Z,99542.80
2018-12-08T14:31:38.307Z,99531.31
2018-12-08T14:34:06.168Z,99535.78
2018-12-08T14:36:33.920Z,99543.92
2018-12-08T14:39:02.261Z,99532.20
2018-12-08T14:41:29.876Z,99536.44
2018-12-08T14:43:57.518Z,99531.84
2018-12-08T14:46:25.137Z,99536.28
2018-12-08T14:48:52.772Z,99535.10
2018-12-08T14:51:28.391Z,99532.43
2018-12-08T14:53:59.268Z,99530.47
2018-12-08T14:56:26.886Z,99535.53
2018-12-08T14:58:54.496Z,99532.95
2018-12-08T15:01:23.148Z,99532.70
2018-12-08T15:03:50.750Z,99536.39
2018-12-08T15:06:18.366Z,99536.94
2018-12-08T15:08:45.987Z,99541.25
2018-12-08T15:11:13.602Z,99536.45
2018-12-08T15:13:41.327Z,99533.41
2018-12-08T15:16:09.075Z,99528.73
2018-12-08T15:18:36.689Z,99529.33
2018-12-08T15:21:04.348Z,99520.65
2018-12-08T15:23:32.396Z,99534.55
2018-12-08T15:26:00.013Z,99533.05
2018-12-08T15:28:28.479Z,99537.41
2018-12-08T15:30:56.105Z,99542.89
2018-12-08T15:33:23.738Z,99545.85
2018-12-08T15:35:52.280Z,99532.19
2018-12-08T15:38:20.702Z,99535.16
2018-12-08T15:40:49.310Z,99524.19
2018-12-08T15:43:16.929Z,99518.63
2018-12-08T15:45:44.538Z,99519.27
2018-12-08T15:48:12.201Z,99518.60
2018-12-08T15:50:39.868Z,99516.52
2018-12-08T15:53:07.609Z,99502.61
2018-12-08T15:55:37.034Z,99498.11
2018-12-08T15:58:05.958Z,99514.50
2018-12-08T16:00:34.761Z,99502.30
2018-12-08T16:03:04.383Z,99498.10
2018-12-08T16:05:33.590Z,99495.61
2018-12-08T16:08:05.374Z,99492.94
2018-12-08T16:10:34.053Z,99498.67
2018-12-08T16:13:02.318Z,99497.98
2018-12-08T16:15:30.782Z,99503.39
2018-12-08T16:17:58.392Z,99503.02
2018-12-08T16:20:26.111Z,99494.11
2018-12-08T16:22:54.549Z,99503.31
2018-12-08T16:25:22.170Z,99503.31
2018-12-08T16:27:51.107Z,99484.91
2018-12-08T16:30:19.669Z,99495.64
2018-12-08T16:32:48.159Z,99501.75
2018-12-08T16:35:15.774Z,99494.03
2018-12-08T16:37:43.392Z,99492.69
2018-12-08T16:40:11.874Z,99498.70
2018-12-08T16:42:39.525Z,99500.61
2018-12-08T16:45:07.219Z,99488.34
2018-12-08T16:47:34.935Z,99493.52
2018-12-08T16:50:02.626Z,99488.41
2018-12-08T16:52:30.233Z,99485.52
2018-12-08T16:54:58.793Z,99492.23
2018-12-08T16:57:27.344Z,99480.63
2018-12-08T16:59:55.555Z,99486.18
2018-12-08T17:02:23.171Z,99486.27
2018-12-08T17:04:51.731Z,99472.30
2018-12-08T17:07:20.170Z,99473.83
2018-12-08T17:09:49.067Z,99480.70
2018-12-08T17:12:16.703Z,99481.60
2018-12-08T17:14:44.322Z,99478.49
2018-12-08T17:17:11.964Z,99480.53
2018-12-08T17:19:39.581Z,99479.33
2018-12-08T17:22:07.222Z,99486.17
2018-12-08T17:24:34.837Z,99486.62
2018-12-08T17:27:04.590Z,99473.06
2018-12-08T17:29:32.640Z,99477.23
2018-12-08T17:32:00.498Z,99479.30
2018-12-08T17:34:28.250Z,99482.13
2018-12-08T17:36:56.048Z,99477.68
2018-12-08T17:39:23.802Z,99481.66
2018-12-08T17:41:51.652Z,99484.64
2018-12-08T17:44:19.475Z,99474.64
2018-12-08T17:46:47.103Z,99478.14
2018-12-08T17:49:14.882Z,99477.45
2018-12-08T17:51:42.687Z,99477.69
2018-12-08T17:54:10.605Z,99465.18
2018-12-08T17:56:38.416Z,99471.33
2018-12-08T17:59:06.215Z,99470.73
2018-12-08T18:01:34.108Z,99469.63
2018-12-08T18:04:02.015Z,99463.05
2018-12-08T18:06:29.712Z,99458.23
2018-12-08T18:08:57.498Z,99452.09
2018-12-08T18:11:25.119Z,99453.14
2018-12-08T18:13:54.002Z,99465.49
2018-12-08T18:16:21.790Z,99452.96
2018-12-08T18:18:49.596Z,99459.20
2018-12-08T18:21:17.636Z,99450.69
2018-12-08T18:23:45.535Z,99446.33
2018-12-08T18:26:13.393Z,99436.89
2018-12-08T18:28:42.014Z,99442.07
2018-12-08T18:31:09.819Z,99448.09
2018-12-08T18:33:37.630Z,99441.98
2018-12-08T18:36:06.183Z,99430.69
2018-12-08T18:38:33.931Z,99440.91
2018-12-08T18:41:02.349Z,99440.51
2018-12-08T18:43:29.969Z,99434.64
2018-12-08T18:45:57.587Z,99440.66
2018-12-08T18:48:25.244Z,99429.92
2018-12-08T18:50:52.847Z,99432.16
2018-12-08T18:53:20.736Z,99434.33
2018-12-08T18:55:48.526Z,99428.41
2018-12-08T18:58:16.314Z,99432.36
2018-12-08T19:00:44.106Z,99433.47
2018-12-08T19:03:11.896Z,99429.89
2018-12-08T19:05:39.688Z,99438.88
2018-12-08T19:08:08.457Z,99430.35
2018-12-08T19:10:36.167Z,99418.93
2018-12-08T19:13:03.944Z,99426.30
2018-12-08T19:15:32.527Z,99417.11
2018-12-08T19:18:00.322Z,99414.04
2018-12-08T19:20:29.148Z,99407.67
2018-12-08T19:22:56.950Z,99406.77
2018-12-08T19:25:25.468Z,99408.77
2018-12-08T19:27:53.093Z,99405.35
2018-12-08T19:30:20.711Z,99406.28
2018-12-08T19:32:48.332Z,99397.64
2018-12-08T19:35:15.978Z,99400.23
2018-12-08T19:37:43.587Z,99398.05
2018-12-08T19:40:12.161Z,99394.92
2018-12-08T19:42:39.779Z,99393.11
2018-12-08T19:45:07.981Z,99394.88
2018-12-08T19:47:35.606Z,99393.35
2018-12-08T19:50:05.188Z,99384.66
2018-12-08T19:52:33.462Z,99392.80
2018-12-08T19:55:02.784Z,99381.70
2018-12-08T19:57:30.459Z,99379.20
2018-12-08T19:59:58.424Z,99377.81
2018-12-08T20:02:26.077Z,99381.61
2018-12-08T20:04:53.761Z,99372.12
2018-12-08T20:07:21.414Z,99376.52
2018-12-08T20:09:49.577Z,99380.03
2018-12-08T20:12:18.585Z,99374.02
2018-12-08T20:14:47.293Z,99357.19
2018-12-08T20:17:14.951Z,99362.14
2018-12-08T20:19:42.591Z,99363.72
2018-12-08T20:22:10.280Z,99358.72
2018-12-08T20:24:37.949Z,99351.70
2018-12-08T20:27:06.072Z,99348.28
2018-12-08T20:29:33.708Z,99343.94
2018-12-08T20:32:01.560Z,99333.61
2018-12-08T20:34:29.192Z,99339.44
2018-12-08T20:36:56.853Z,99327.42
2018-12-08T20:39:25.420Z,99331.02
2018-12-08T20:41:53.084Z,99332.97
2018-12-08T20:44:20.760Z,99329.87
2018-12-08T20:46:48.377Z,99328.58
2018-12-08T20:49:16.000Z,99332.14
2018-12-08T20:51:44.555Z,99324.32
2018-12-08T20:54:12.211Z,99312.44
2018-12-08T20:56:39.866Z,99308.79
2018-12-08T20:59:07.474Z,99301.95
2018-12-08T21:01:35.116Z,99317.16
2018-12-08T21:04:03.611Z,99311.38
2018-12-08T21:06:31.922Z,99309.75
2018-12-08T21:08:59.537Z,99303.59
2018-12-08T21:11:27.197Z,99301.75
2018-12-08T21:13:54.832Z,99296.15
2018-12-08T21:16:23.292Z,99304.42
2018-12-08T21:18:51.958Z,99290.21
2018-12-08T21:21:19.584Z,99290.75
2018-12-08T21:23:48.153Z,99286.86
2018-12-08T21:26:15.797Z,99284.52
2018-12-08T21:28:44.348Z,99283.95
2018-12-08T21:31:12.148Z,99282.67
2018-12-08T21:33:39.794Z,99269.14
2018-12-08T21:36:07.720Z,99257.41
2018-12-08T21:38:35.362Z,99259.99
2018-12-08T21:41:03.544Z,99241.66
2018-12-08T21:43:31.800Z,99239.98
2018-12-08T21:45:59.416Z,99249.86
2018-12-08T21:48:27.095Z,99250.19
2018-12-08T21:50:57.624Z,99238.86
2018-12-08T21:53:25.240Z,99225.84
2018-12-08T21:55:52.863Z,99228.28
2018-12-08T21:58:20.504Z,99226.57
2018-12-08T22:00:48.144Z,99211.13
2018-12-08T22:03:16.820Z,99198.41
2018-12-08T22:05:44.460Z,99190.28
2018-12-08T22:08:13.086Z,99183.66
2018-12-08T22:10:40.784Z,99168.67
2018-12-08T22:13:09.172Z,99157.23
2018-12-08T22:15:36.901Z,99156.00
2018-12-08T22:18:04.498Z,99157.84
2018-12-08T22:23:44.176Z,99148.34
2018-12-08T22:26:11.827Z,99140.44
2018-12-08T22:28:39.512Z,99143.39
2018-12-08T22:31:08.072Z,99134.05
2018-12-08T22:33:35.699Z,99130.58
2018-12-08T22:36:04.131Z,99134.45
2018-12-08T22:38:32.509Z,99121.44
2018-12-08T22:41:00.178Z,99113.31
2018-12-08T22:43:27.789Z,99105.72
2018-12-08T22:45:56.307Z,99096.77
2018-12-08T22:48:24.003Z,99093.41
2018-12-08T22:50:51.607Z,99091.23
2018-12-08T22:53:19.294Z,99080.89
2018-12-08T22:55:51.643Z,99079.95
2018-12-08T22:58:19.332Z,99077.81
2018-12-08T23:00:48.427Z,99076.50
2018-12-08T23:03:16.036Z,99076.39
2018-12-08T23:05:43.713Z,99066.85
2018-12-08T23:08:11.384Z,99068.36
2018-12-08T23:10:39.041Z,99056.78
2018-12-08T23:13:06.649Z,99048.87
2018-12-08T23:15:34.256Z,99035.57
2018-12-08T23:18:02.856Z,99024.33
2018-12-08T23:20:30.474Z,99014.75
2018-12-08T23:22:58.098Z,99007.85
2018-12-08T23:25:25.779Z,99008.53
2018-12-08T23:27:53.383Z,99001.20
2018-12-08T23:30:21.063Z,98988.89
2018-12-08T23:32:48.755Z,98977.92
2018-12-08T23:35:16.359Z,98975.25
2018-12-08T23:37:44.127Z,98961.27
2018-12-08T23:40:11.905Z,98952.74
2018-12-08T23:42:39.498Z,98947.41
2018-12-08T23:45:07.187Z,98934.73
2018-12-08T23:47:34.817Z,98926.47
2018-12-08T23:50:02.500Z,98909.28
2018-12-08T23:52:30.101Z,98901.80
2018-12-08T23:54:57.727Z,98889.16
2018-12-08T23:57:26.451Z,98891.66
2018-12-08T23:59:55.071Z,98873.80
